Time;durP1;ratioP1;P1;durP2;ratioP2;P2;SDS_P1;SDS_P2;PMS_P1;PMS_P2;Temp;Humidity;BMP_temperature;BMP_pressure;BME280_temperature;BME280_humidity;BME280_pressure;Samples;Min_cycle;Max_cycle;Signal;HPM_P1;HPM_P2
2023/06/26 00:00:07;;;;;;;11.00;10.05;;;21.10;99.90;;;;;;5047977;28;20413;-92
2023/06/26 00:02:33;;;;;;;10.10;9.07;;;21.20;99.90;;;;;;5046485;28;20409;-93
2023/06/26 00:05:02;;;;;;;11.52;10.45;;;21.20;99.90;;;;;;5047725;28;20420;-93
2023/06/26 00:07:30;;;;;;;10.80;9.70;;;21.20;99.90;;;;;;5047228;28;20409;-93
2023/06/26 00:09:59;;;;;;;10.20;9.30;;;21.10;99.90;;;;;;5046754;28;20402;-93
2023/06/26 00:12:27;;;;;;;10.70;9.70;;;21.10;99.90;;;;;;5047364;28;20417;-94
2023/06/26 00:14:53;;;;;;;9.80;9.00;;;21.10;99.90;;;;;;5045781;28;20471;-95
2023/06/26 00:17:22;;;;;;;10.70;9.75;;;21.10;99.90;;;;;;5047429;28;20417;-94
2023/06/26 00:19:49;;;;;;;10.38;9.40;;;21.10;99.90;;;;;;5046084;28;20417;-92
2023/06/26 00:22:15;;;;;;;9.75;8.85;;;21.10;99.90;;;;;;5047409;28;20401;-92
2023/06/26 00:24:41;;;;;;;9.40;8.60;;;21.10;99.90;;;;;;5046414;28;20411;-94
2023/06/26 00:27:08;;;;;;;9.65;8.63;;;21.00;99.90;;;;;;5046320;28;20877;-93
2023/06/26 00:29:35;;;;;;;10.27;9.27;;;21.10;99.90;;;;;;5046806;28;20409;-93
2023/06/26 00:32:02;;;;;;;9.93;9.13;;;21.10;99.90;;;;;;5044627;28;20516;-93
2023/06/26 00:34:30;;;;;;;10.40;9.50;;;21.20;99.90;;;;;;5048579;28;20401;-93
2023/06/26 00:36:57;;;;;;;9.37;8.57;;;21.20;99.90;;;;;;5035596;28;20631;-93
2023/06/26 00:39:25;;;;;;;10.05;9.15;;;21.20;99.90;;;;;;5053888;28;20417;-93
2023/06/26 00:41:53;;;;;;;9.07;8.38;;;21.20;99.90;;;;;;5053064;28;20474;-93
2023/06/26 00:44:19;;;;;;;9.47;8.67;;;21.20;99.90;;;;;;5052405;28;20414;-93
2023/06/26 00:46:45;;;;;;;9.68;8.88;;;21.50;99.90;;;;;;5053418;28;20417;-94
2023/06/26 00:49:12;;;;;;;9.18;8.38;;;21.20;99.90;;;;;;5052208;28;20436;-93
2023/06/26 00:51:39;;;;;;;9.33;8.43;;;21.30;99.90;;;;;;5053978;28;20465;-93
2023/06/26 00:54:06;;;;;;;8.80;8.02;;;21.30;99.90;;;;;;5052320;28;20414;-93
2023/06/26 00:56:34;;;;;;;9.35;8.52;;;21.30;99.90;;;;;;5053660;28;20404;-93
2023/06/26 00:58:59;;;;;;;9.35;8.65;;;21.30;99.90;;;;;;5069442;28;20453;-93
2023/06/26 01:01:26;;;;;;;8.90;8.00;;;21.30;99.90;;;;;;5053175;28;20415;-94
2023/06/26 01:03:53;;;;;;;9.05;8.15;;;21.30;99.90;;;;;;5053037;28;20401;-92
2023/06/26 01:06:22;;;;;;;9.30;8.38;;;21.30;99.90;;;;;;5052116;28;20497;-92
2023/06/26 01:08:48;;;;;;;9.32;8.55;;;21.40;99.90;;;;;;5053273;28;20409;-93
2023/06/26 01:11:15;;;;;;;9.13;8.32;;;21.40;99.90;;;;;;5051704;28;20512;-93
2023/06/26 01:13:44;;;;;;;9.80;8.90;;;21.40;99.90;;;;;;5053199;28;20412;-93
2023/06/26 01:16:11;;;;;;;9.23;8.52;;;21.30;99.90;;;;;;5052546;28;20393;-92
2023/06/26 01:18:42;;;;;;;8.30;7.60;;;21.30;99.90;;;;;;5052951;28;20439;-93
2023/06/26 01:21:09;;;;;;;9.57;8.70;;;21.30;99.90;;;;;;5053627;28;20487;-92
2023/06/26 01:23:48;;;;;;;8.93;8.13;;;21.30;99.90;;;;;;5051689;28;20451;-92
2023/06/26 01:26:18;;;;;;;8.70;7.90;;;21.40;99.90;;;;;;5053408;28;20799;-94
2023/06/26 01:28:44;;;;;;;8.80;7.93;;;21.40;99.90;;;;;;5051656;28;20409;-92
2023/06/26 01:31:11;;;;;;;9.90;8.90;;;21.50;99.90;;;;;;5052984;28;20559;-93
2023/06/26 01:33:38;;;;;;;9.93;9.10;;;21.50;99.90;;;;;;5052006;28;20773;-92
2023/06/26 01:36:04;;;;;;;8.98;8.27;;;21.50;99.90;;;;;;5052328;28;21016;-93
2023/06/26 01:38:30;;;;;;;9.70;8.90;;;21.60;99.90;;;;;;5036213;28;20401;-92
2023/06/26 01:40:56;;;;;;;9.63;8.73;;;21.60;99.90;;;;;;5046571;28;20671;-93
2023/06/26 01:43:40;;;;;;;9.57;8.75;;;21.60;99.90;;;;;;5037260;28;20413;-93
2023/06/26 01:46:23;;;;;;;10.05;9.15;;;21.60;99.90;;;;;;5033239;28;20405;-92
2023/06/26 01:49:19;;;;;;;9.40;8.60;;;21.60;99.90;;;;;;5033109;28;20562;-93
2023/06/26 01:51:59;;;;;;;10.02;9.23;;;21.50;99.90;;;;;;5033259;28;20432;-93
2023/06/26 01:54:30;;;;;;;9.38;8.57;;;21.50;99.90;;;;;;5032199;28;20552;-92
2023/06/26 01:56:58;;;;;;;9.10;8.30;;;21.30;99.90;;;;;;5049851;28;20452;-92
2023/06/26 01:59:25;;;;;;;9.35;8.55;;;21.60;99.90;;;;;;5032662;28;20466;-91
2023/06/26 02:01:52;;;;;;;9.57;8.65;;;21.30;99.90;;;;;;5032526;28;20997;-92
2023/06/26 02:04:21;;;;;;;8.75;8.02;;;21.30;99.90;;;;;;5033050;28;20913;-91
2023/06/26 02:06:46;;;;;;;10.40;9.50;;;21.10;99.90;;;;;;5031688;28;20491;-92
2023/06/26 02:09:12;;;;;;;10.50;9.63;;;21.20;99.90;;;;;;5032984;28;20398;-91
2023/06/26 02:11:38;;;;;;;10.13;9.30;;;21.10;99.90;;;;;;5031465;28;20782;-92
2023/06/26 02:14:04;;;;;;;10.70;9.80;;;21.00;99.90;;;;;;5033416;28;20425;-94
2023/06/26 02:16:30;;;;;;;10.02;9.02;;;20.90;99.90;;;;;;5031641;28;20411;-93
2023/06/26 02:18:57;;;;;;;10.50;9.50;;;20.90;99.90;;;;;;5032735;28;20417;-92
2023/06/26 02:21:23;;;;;;;10.13;9.30;;;20.90;99.90;;;;;;5032049;28;20444;-92
2023/06/26 02:23:49;;;;;;;9.85;9.05;;;20.80;99.90;;;;;;5047939;28;20445;-92
2023/06/26 02:26:14;;;;;;;10.73;9.73;;;20.80;99.90;;;;;;5032615;28;20417;-93
2023/06/26 02:28:40;;;;;;;10.18;9.25;;;21.20;99.90;;;;;;5031464;28;20425;-93
2023/06/26 02:31:05;;;;;;;10.80;9.90;;;21.20;99.90;;;;;;5032137;28;20425;-93
2023/06/26 02:33:32;;;;;;;10.27;9.40;;;20.70;99.90;;;;;;5045066;28;20412;-92
2023/06/26 02:35:59;;;;;;;10.43;9.52;;;20.70;99.90;;;;;;5052325;28;20427;-91
2023/06/26 02:38:29;;;;;;;10.80;9.90;;;20.70;99.90;;;;;;5051990;28;20935;-92
2023/06/26 02:40:56;;;;;;;10.23;9.40;;;20.60;99.90;;;;;;5051943;28;21064;-93
2023/06/26 02:43:22;;;;;;;10.57;9.67;;;20.50;99.90;;;;;;5052485;28;20439;-93
2023/06/26 02:45:48;;;;;;;11.00;10.10;;;20.50;99.90;;;;;;5051044;28;20928;-92
2023/06/26 02:48:14;;;;;;;9.70;8.80;;;20.50;99.90;;;;;;5052526;28;20416;-92
2023/06/26 02:50:39;;;;;;;10.50;9.60;;;20.40;99.90;;;;;;5050453;28;20435;-91
2023/06/26 02:53:05;;;;;;;10.75;9.70;;;20.40;99.90;;;;;;5052055;28;20415;-92
2023/06/26 02:55:31;;;;;;;10.30;9.50;;;20.40;99.90;;;;;;5051681;28;20407;-93
2023/06/26 02:57:57;;;;;;;11.48;10.48;;;20.40;99.90;;;;;;5051624;28;20947;-92
2023/06/26 03:00:23;;;;;;;11.00;10.00;;;20.40;99.90;;;;;;5051389;28;20407;-91
2023/06/26 03:02:49;;;;;;;12.50;11.47;;;20.30;99.90;;;;;;5050267;28;20407;-92
2023/06/26 03:05:16;;;;;;;13.02;11.75;;;20.30;99.90;;;;;;5052089;28;20803;-94
2023/06/26 03:07:41;;;;;;;13.50;12.40;;;20.40;99.90;;;;;;5050692;28;20482;-91
2023/06/26 03:10:07;;;;;;;13.32;12.18;;;20.30;99.90;;;;;;5068997;28;20511;-93
2023/06/26 03:12:33;;;;;;;12.90;11.73;;;20.30;99.90;;;;;;5050851;28;20408;-91
2023/06/26 03:14:59;;;;;;;14.17;12.97;;;20.40;99.90;;;;;;5051368;28;20966;-92
2023/06/26 03:17:25;;;;;;;12.70;11.60;;;20.40;99.90;;;;;;5050675;28;20454;-91
2023/06/26 03:19:50;;;;;;;12.30;11.30;;;20.70;99.90;;;;;;5067164;28;20403;-92
2023/06/26 03:22:16;;;;;;;12.13;11.13;;;20.40;99.90;;;;;;5051614;28;20400;-92
2023/06/26 03:24:45;;;;;;;12.87;11.73;;;20.40;99.90;;;;;;5050235;28;20445;-93
2023/06/26 03:27:11;;;;;;;11.60;10.60;;;20.40;99.90;;;;;;5051817;28;20404;-92
2023/06/26 03:29:37;;;;;;;12.13;11.00;;;20.50;99.90;;;;;;5066202;28;20400;-94
2023/06/26 03:32:03;;;;;;;12.27;11.20;;;20.50;99.90;;;;;;5053062;28;20431;-92
2023/06/26 03:34:29;;;;;;;11.60;10.40;;;20.50;99.90;;;;;;5053806;28;20398;-91
2023/06/26 03:36:58;;;;;;;11.90;10.80;;;20.50;99.90;;;;;;5053646;28;20452;-93
2023/06/26 03:39:23;;;;;;;13.05;11.95;;;20.60;99.90;;;;;;5054808;28;20405;-91
2023/06/26 03:41:49;;;;;;;12.03;10.90;;;20.60;99.90;;;;;;5053267;28;20494;-92
2023/06/26 03:44:15;;;;;;;12.95;11.68;;;20.60;99.90;;;;;;5054920;28;20440;-91
2023/06/26 03:46:41;;;;;;;10.35;9.45;;;20.70;99.90;;;;;;5052970;28;20406;-91
2023/06/26 03:49:07;;;;;;;12.43;11.32;;;20.70;99.90;;;;;;5054576;28;20930;-91
2023/06/26 03:51:33;;;;;;;11.83;10.60;;;20.70;99.90;;;;;;5069653;28;20520;-92
2023/06/26 03:53:59;;;;;;;11.10;10.13;;;20.70;99.90;;;;;;5053448;28;20498;-91
2023/06/26 03:56:25;;;;;;;11.35;10.25;;;20.70;99.90;;;;;;5053512;28;20402;-90
2023/06/26 03:58:51;;;;;;;9.73;8.75;;;20.80;99.90;;;;;;5053172;28;20447;-92
2023/06/26 04:01:16;;;;;;;10.40;9.40;;;20.80;99.90;;;;;;5071231;28;20398;-90
2023/06/26 04:03:42;;;;;;;10.32;9.20;;;20.90;99.90;;;;;;5069029;28;20431;-91
2023/06/26 04:06:09;;;;;;;12.85;9.40;;;20.90;99.90;;;;;;5053557;28;21008;-91
2023/06/26 04:08:35;;;;;;;11.77;9.25;;;21.00;99.90;;;;;;5052706;28;20432;-90
2023/06/26 04:11:01;;;;;;;12.32;10.07;;;20.90;99.90;;;;;;5069377;28;20469;-92
2023/06/26 04:13:26;;;;;;;12.85;9.85;;;20.80;99.90;;;;;;5052915;28;20889;-92
2023/06/26 04:15:52;;;;;;;13.43;10.70;;;20.90;99.90;;;;;;5053309;28;20405;-90
2023/06/26 04:18:20;;;;;;;12.85;9.90;;;20.90;99.90;;;;;;5053933;28;20887;-91
2023/06/26 04:21:11;;;;;;;13.50;10.73;;;20.90;99.90;;;;;;5052967;28;20413;-92
2023/06/26 04:23:38;;;;;;;13.85;10.90;;;20.90;99.90;;;;;;5070712;28;20414;-91
2023/06/26 04:26:05;;;;;;;14.02;11.60;;;20.90;99.90;;;;;;5069260;28;20430;-89
2023/06/26 04:28:34;;;;;;;15.77;12.70;;;20.90;99.90;;;;;;5053304;28;20397;-90
2023/06/26 04:31:03;;;;;;;15.90;12.43;;;20.80;99.90;;;;;;5053263;28;20425;-87
2023/06/26 04:33:28;;;;;;;17.42;13.52;;;20.80;99.90;;;;;;5065565;28;20541;-90
2023/06/26 04:35:54;;;;;;;15.30;12.63;;;20.80;99.90;;;;;;5050085;28;20495;-91
2023/06/26 04:38:21;;;;;;;18.40;13.07;;;20.80;99.90;;;;;;5048871;28;20545;-87
2023/06/26 04:40:47;;;;;;;19.13;13.27;;;20.80;99.90;;;;;;5042908;28;20437;-85
2023/06/26 04:43:13;;;;;;;18.50;13.63;;;20.80;99.90;;;;;;5042893;28;20496;-86
2023/06/26 04:45:39;;;;;;;17.98;13.13;;;20.80;99.90;;;;;;5027697;28;20714;-86
2023/06/26 04:48:05;;;;;;;17.73;12.70;;;20.70;99.90;;;;;;5050601;28;20783;-87
2023/06/26 04:50:33;;;;;;;18.63;13.85;;;20.70;99.90;;;;;;5032392;28;20534;-85
2023/06/26 04:52:59;;;;;;;19.85;13.25;;;20.70;99.90;;;;;;5027666;28;20983;-86
2023/06/26 04:55:25;;;;;;;14.20;11.18;;;20.70;99.90;;;;;;5042111;28;20529;-86
2023/06/26 04:57:51;;;;;;;16.17;10.73;;;20.70;99.90;;;;;;5059351;28;20412;-86
2023/06/26 05:00:17;;;;;;;17.63;10.52;;;20.70;99.90;;;;;;5045841;28;20400;-88
2023/06/26 05:02:43;;;;;;;15.03;9.73;;;20.70;99.90;;;;;;5064431;28;20422;-86
2023/06/26 05:05:10;;;;;;;15.05;9.00;;;20.60;99.90;;;;;;5062869;28;20408;-87
2023/06/26 05:07:36;;;;;;;20.45;9.02;;;20.70;99.90;;;;;;5063480;28;20408;-83
2023/06/26 05:10:02;;;;;;;23.43;10.67;;;20.50;99.90;;;;;;5064152;28;20419;-82
2023/06/26 05:12:28;;;;;;;22.05;11.15;;;20.20;99.90;;;;;;5062540;28;20434;-84
2023/06/26 05:14:54;;;;;;;22.88;11.98;;;19.90;99.90;;;;;;5064472;28;20916;-84
2023/06/26 05:17:19;;;;;;;23.98;12.38;;;19.70;99.90;;;;;;5062393;28;20403;-85
2023/06/26 05:19:45;;;;;;;18.60;10.50;;;19.60;99.90;;;;;;5063811;28;20426;-85
2023/06/26 05:22:13;;;;;;;16.13;7.28;;;19.50;99.90;;;;;;5048145;28;20399;-83
2023/06/26 05:24:39;;;;;;;15.03;7.37;;;19.30;99.90;;;;;;5067431;28;20470;-83
2023/06/26 05:27:06;;;;;;;18.50;6.97;;;19.20;99.90;;;;;;5067142;28;20404;-84
2023/06/26 05:29:33;;;;;;;16.92;6.72;;;19.10;99.90;;;;;;5066611;28;20470;-84
2023/06/26 05:31:59;;;;;;;18.20;6.65;;;19.00;99.90;;;;;;5058123;28;20490;-83
2023/06/26 05:34:31;;;;;;;16.48;6.13;;;18.90;99.90;;;;;;5048839;28;20427;-84
2023/06/26 05:37:01;;;;;;;16.85;6.05;;;18.90;99.90;;;;;;5050383;28;21117;-83
2023/06/26 05:39:27;;;;;;;14.75;5.85;;;19.00;99.90;;;;;;5048951;28;20569;-83
2023/06/26 05:41:54;;;;;;;17.52;6.57;;;19.00;99.90;;;;;;5051723;28;20874;-84
2023/06/26 05:44:19;;;;;;;18.45;5.60;;;19.00;99.90;;;;;;5053048;28;20401;-83
2023/06/26 05:46:46;;;;;;;19.03;6.07;;;19.00;99.90;;;;;;5069488;28;20406;-84
2023/06/26 05:49:12;;;;;;;16.63;5.63;;;19.20;99.90;;;;;;5070678;28;20394;-83
2023/06/26 05:51:38;;;;;;;16.03;5.43;;;19.20;99.90;;;;;;5069007;28;20430;-84
2023/06/26 05:54:04;;;;;;;16.02;4.80;;;19.30;99.90;;;;;;5070908;28;20410;-84
2023/06/26 05:56:30;;;;;;;16.70;5.15;;;19.40;99.90;;;;;;5069179;28;20410;-84
2023/06/26 05:58:57;;;;;;;11.32;4.55;;;19.50;99.90;;;;;;5053426;28;20393;-84
2023/06/26 06:01:23;;;;;;;14.68;4.40;;;19.50;99.90;;;;;;5069156;28;20478;-83
2023/06/26 06:03:49;;;;;;;15.50;4.93;;;19.80;99.90;;;;;;5069062;28;20417;-84
2023/06/26 06:06:15;;;;;;;13.53;4.07;;;19.60;99.90;;;;;;5053837;28;20402;-84
2023/06/26 06:08:41;;;;;;;12.82;3.60;;;20.00;99.90;;;;;;5068067;28;20441;-84
2023/06/26 06:11:07;;;;;;;14.10;3.93;;;20.00;99.90;;;;;;5070267;28;20430;-85
2023/06/26 06:13:33;;;;;;;11.40;3.72;;;20.00;99.90;;;;;;5068852;28;20483;-85
2023/06/26 06:15:58;;;;;;;11.10;3.43;;;20.10;99.90;;;;;;5070015;28;20463;-85
2023/06/26 06:18:24;;;;;;;11.35;3.38;;;20.10;99.90;;;;;;5069045;28;20444;-84
2023/06/26 06:20:50;;;;;;;12.27;3.38;;;20.30;99.90;;;;;;5069234;28;20410;-83
2023/06/26 06:23:15;;;;;;;11.00;3.05;;;20.40;99.90;;;;;;5069877;28;20450;-84
2023/06/26 06:25:41;;;;;;;9.97;2.80;;;20.60;99.90;;;;;;5051697;28;20454;-83
2023/06/26 06:28:07;;;;;;;12.48;3.25;;;20.60;99.90;;;;;;5070051;28;20414;-84
2023/06/26 06:30:32;;;;;;;8.93;2.30;;;20.80;99.90;;;;;;5068044;28;21261;-86
2023/06/26 06:32:58;;;;;;;9.73;2.20;;;20.80;99.90;;;;;;5069216;28;20798;-86
2023/06/26 06:35:24;;;;;;;7.30;1.90;;;20.70;99.90;;;;;;5051854;28;20446;-83
2023/06/26 06:37:50;;;;;;;8.35;1.90;;;20.50;99.90;;;;;;5070835;28;20582;-90
2023/06/26 06:40:16;;;;;;;8.02;2.03;;;20.80;99.90;;;;;;5071284;28;20877;-88
2023/06/26 06:42:42;;;;;;;7.82;2.10;;;20.70;99.90;;;;;;5054028;28;20925;-92
2023/06/26 06:45:09;;;;;;;8.52;1.80;;;20.90;99.90;;;;;;5055643;28;20398;-92
2023/06/26 06:47:35;;;;;;;7.10;1.70;;;21.00;99.90;;;;;;5054231;28;20405;-92
2023/06/26 06:50:10;;;;;;;6.82;1.63;;;21.20;99.90;;;;;;5055528;28;20416;-87
2023/06/26 06:52:38;;;;;;;5.72;1.38;;;21.30;99.90;;;;;;5053861;28;20439;-92
2023/06/26 06:55:06;;;;;;;8.70;1.67;;;21.40;99.90;;;;;;5054612;28;20409;-91
2023/06/26 06:57:37;;;;;;;8.23;1.97;;;21.20;99.90;;;;;;5054260;28;20420;-88
2023/06/26 07:00:08;;;;;;;8.77;1.50;;;21.30;99.90;;;;;;5053959;28;20413;-91
2023/06/26 07:02:35;;;;;;;6.05;1.25;;;21.40;99.90;;;;;;5054079;28;20406;-90
2023/06/26 07:05:03;;;;;;;6.88;1.25;;;21.70;99.90;;;;;;5053386;28;20426;-88
2023/06/26 07:07:31;;;;;;;5.65;0.98;;;21.50;99.90;;;;;;5071295;28;20398;-89
2023/06/26 07:09:59;;;;;;;6.28;1.02;;;21.50;99.90;;;;;;5052911;28;21079;-88
2023/06/26 07:12:24;;;;;;;5.50;1.00;;;21.30;99.90;;;;;;5053988;28;20425;-89
2023/06/26 07:14:50;;;;;;;7.07;1.03;;;21.30;99.90;;;;;;5053615;28;20409;-93
2023/06/26 07:17:16;;;;;;;6.82;1.20;;;21.30;99.90;;;;;;5053773;28;20413;-92
2023/06/26 07:19:42;;;;;;;8.43;1.40;;;21.50;99.90;;;;;;5055003;28;20402;-92
2023/06/26 07:22:07;;;;;;;6.30;1.20;;;21.60;99.90;;;;;;5052647;28;20398;-91
2023/06/26 07:24:33;;;;;;;5.20;1.03;;;21.70;99.90;;;;;;5054659;28;20414;-92
2023/06/26 07:27:00;;;;;;;6.30;1.02;;;22.10;99.90;;;;;;5052701;28;20739;-91
2023/06/26 07:29:26;;;;;;;4.85;1.20;;;22.10;99.90;;;;;;5054668;28;20826;-92
2023/06/26 07:31:52;;;;;;;4.37;0.90;;;22.10;99.90;;;;;;5052665;28;20420;-92
2023/06/26 07:34:17;;;;;;;5.85;1.20;;;22.20;99.90;;;;;;5070372;28;20988;-92
2023/06/26 07:36:43;;;;;;;4.53;0.90;;;21.90;99.90;;;;;;5053826;28;20414;-92
2023/06/26 07:39:09;;;;;;;4.47;1.20;;;22.10;99.90;;;;;;5070081;28;20398;-92
2023/06/26 07:41:34;;;;;;;4.20;0.97;;;22.00;99.90;;;;;;5054438;28;20402;-93
2023/06/26 07:44:00;;;;;;;3.97;0.83;;;22.30;99.90;;;;;;5051432;28;20402;-89
2023/06/26 07:46:26;;;;;;;4.15;1.00;;;22.20;99.90;;;;;;5053745;28;20492;-91
2023/06/26 07:48:51;;;;;;;5.25;0.98;;;22.20;99.90;;;;;;5052352;28;20394;-89
2023/06/26 07:51:17;;;;;;;5.03;0.97;;;22.40;99.90;;;;;;5053612;28;20874;-91
2023/06/26 07:53:43;;;;;;;4.82;1.08;;;22.00;99.90;;;;;;5053471;28;20450;-91
2023/06/26 07:56:09;;;;;;;3.83;0.97;;;22.00;99.90;;;;;;5052386;28;20523;-91
2023/06/26 07:58:34;;;;;;;3.97;0.93;;;21.60;99.90;;;;;;5052745;28;20436;-92
2023/06/26 08:01:00;;;;;;;4.33;0.90;;;22.20;99.90;;;;;;5051643;28;20394;-90
2023/06/26 08:03:26;;;;;;;4.20;1.02;;;22.30;99.90;;;;;;5053667;28;20446;-91
2023/06/26 08:05:52;;;;;;;4.95;0.70;;;22.20;99.90;;;;;;5051450;28;20920;-92
2023/06/26 08:08:17;;;;;;;5.60;1.37;;;22.50;99.90;;;;;;5053840;28;20421;-90
2023/06/26 08:10:43;;;;;;;3.97;1.23;;;22.40;99.90;;;;;;5069495;28;21028;-92
2023/06/26 08:13:09;;;;;;;4.93;1.20;;;22.40;99.90;;;;;;5053027;28;20435;-88
2023/06/26 08:15:35;;;;;;;4.55;1.17;;;22.30;99.90;;;;;;5052904;28;20400;-90
2023/06/26 08:18:01;;;;;;;4.65;1.20;;;22.10;99.90;;;;;;5068546;28;20867;-91
2023/06/26 08:20:28;;;;;;;4.77;1.10;;;22.10;99.90;;;;;;5069474;28;20438;-86
2023/06/26 08:22:54;;;;;;;3.20;1.00;;;22.00;99.90;;;;;;5051203;28;20398;-90
2023/06/26 08:25:20;;;;;;;4.50;1.05;;;22.30;99.90;;;;;;5069204;28;20949;-90
2023/06/26 08:27:46;;;;;;;5.38;0.95;;;22.20;99.90;;;;;;5051897;28;20406;-90
2023/06/26 08:30:13;;;;;;;3.73;0.97;;;22.30;99.90;;;;;;5052431;28;20410;-91
2023/06/26 08:32:39;;;;;;;3.17;0.88;;;22.30;99.90;;;;;;5068918;28;20432;-87
2023/06/26 08:35:06;;;;;;;3.70;1.20;;;22.20;99.90;;;;;;5052465;28;20440;-92
2023/06/26 08:37:32;;;;;;;5.55;1.20;;;22.30;99.90;;;;;;5052773;28;20402;-91
2023/06/26 08:39:59;;;;;;;3.50;1.00;;;22.40;99.90;;;;;;5068207;28;20839;-88
2023/06/26 08:42:25;;;;;;;3.80;1.33;;;22.30;99.90;;;;;;5070048;28;20993;-91
2023/06/26 08:44:54;;;;;;;5.00;1.30;;;22.20;99.90;;;;;;5069193;28;20833;-91
2023/06/26 08:47:19;;;;;;;4.85;0.98;;;22.00;99.90;;;;;;5052339;28;20434;-87
2023/06/26 08:50:00;;;;;;;4.35;0.95;;;21.90;99.90;;;;;;5049927;28;20409;-84
2023/06/26 08:52:33;;;;;;;4.37;1.07;;;21.70;99.90;;;;;;5066339;28;20425;-85
2023/06/26 08:55:02;;;;;;;4.23;1.10;;;21.60;99.90;;;;;;5067772;28;20812;-85
2023/06/26 08:57:30;;;;;;;4.32;0.90;;;21.60;99.90;;;;;;5067249;28;20410;-85
2023/06/26 08:59:56;;;;;;;5.30;1.35;;;21.80;99.90;;;;;;5054654;28;20548;-85
2023/06/26 09:02:22;;;;;;;5.32;1.30;;;21.80;99.90;;;;;;5069397;28;20434;-86
2023/06/26 09:04:51;;;;;;;4.80;1.30;;;21.70;99.90;;;;;;5050583;28;20435;-86
2023/06/26 09:07:17;;;;;;;5.70;1.42;;;21.80;99.90;;;;;;5051408;28;20402;-85
2023/06/26 09:09:43;;;;;;;5.22;1.60;;;22.00;99.90;;;;;;5066948;28;20408;-86
2023/06/26 09:12:09;;;;;;;4.95;1.80;;;22.10;99.90;;;;;;5067930;28;20434;-86
2023/06/26 09:14:37;;;;;;;4.18;1.98;;;22.20;99.90;;;;;;5066449;28;20486;-87
2023/06/26 09:17:03;;;;;;;5.22;2.20;;;22.30;99.90;;;;;;5051211;28;20402;-84
2023/06/26 09:19:29;;;;;;;4.82;1.88;;;22.30;99.90;;;;;;5066428;28;20421;-86
2023/06/26 09:21:55;;;;;;;6.33;2.33;;;22.40;99.90;;;;;;5050659;28;20419;-85
2023/06/26 09:24:21;;;;;;;6.40;1.90;;;22.40;99.90;;;;;;5050211;28;20403;-84
2023/06/26 09:26:49;;;;;;;6.22;2.33;;;22.60;99.90;;;;;;5050343;28;20426;-86
2023/06/26 09:29:17;;;;;;;4.25;1.50;;;22.80;99.90;;;;;;5051266;28;20808;-84
2023/06/26 09:31:43;;;;;;;4.90;1.77;;;23.30;99.90;;;;;;5049053;28;20466;-85
2023/06/26 09:34:10;;;;;;;5.55;1.55;;;23.80;99.90;;;;;;5067432;28;20411;-83
2023/06/26 09:36:36;;;;;;;4.68;1.80;;;23.40;95.50;;;;;;5065869;28;20545;-84
2023/06/26 09:39:10;;;;;;;3.80;1.73;;;23.50;99.40;;;;;;5066463;28;20399;-86
2023/06/26 09:41:38;;;;;;;4.05;1.63;;;23.70;99.90;;;;;;5086878;28;20453;-85
2023/06/26 09:44:05;;;;;;;4.97;1.97;;;23.90;99.70;;;;;;5064556;28;20437;-86
2023/06/26 09:46:31;;;;;;;4.10;2.03;;;24.00;97.30;;;;;;5066082;28;20742;-85
2023/06/26 09:49:05;;;;;;;4.33;1.90;;;24.10;94.80;;;;;;5048463;28;20404;-85
2023/06/26 09:51:32;;;;;;;5.40;1.98;;;24.20;98.20;;;;;;5066586;28;20439;-86
2023/06/26 09:53:58;;;;;;;6.32;2.15;;;24.30;97.60;;;;;;5065455;28;20407;-86
2023/06/26 09:56:24;;;;;;;4.13;2.00;;;23.90;94.20;;;;;;5066037;28;20403;-87
2023/06/26 09:58:50;;;;;;;4.85;2.40;;;23.80;99.40;;;;;;5066078;28;20423;-87
2023/06/26 10:01:17;;;;;;;6.55;3.25;;;23.80;94.90;;;;;;5049470;28;20958;-84
2023/06/26 10:03:43;;;;;;;5.38;2.80;;;23.50;95.20;;;;;;5053581;28;20507;-84
2023/06/26 10:06:11;;;;;;;5.18;2.60;;;23.50;99.90;;;;;;5068459;28;20925;-86
2023/06/26 10:08:39;;;;;;;5.07;3.20;;;23.40;96.80;;;;;;5052122;28;20398;-88
2023/06/26 10:11:05;;;;;;;5.65;2.95;;;23.20;98.80;;;;;;5068152;28;20857;-86
2023/06/26 10:13:46;;;;;;;4.20;2.53;;;23.10;99.90;;;;;;5052748;28;20394;-85
2023/06/26 10:16:13;;;;;;;4.68;2.35;;;22.90;96.80;;;;;;5068827;28;20477;-84
2023/06/26 10:18:40;;;;;;;5.35;2.53;;;22.60;98.10;;;;;;5051426;28;20898;-86
2023/06/26 10:21:07;;;;;;;6.63;2.17;;;22.90;99.90;;;;;;5069305;28;20401;-87
2023/06/26 10:23:36;;;;;;;5.22;1.58;;;23.20;99.90;;;;;;5068067;28;20447;-85
2023/06/26 10:26:02;;;;;;;5.60;1.55;;;23.90;98.60;;;;;;5069452;28;20800;-85
2023/06/26 10:28:32;;;;;;;5.10;1.60;;;24.30;90.50;;;;;;5051785;28;20397;-85
2023/06/26 10:31:00;;;;;;;6.50;1.80;;;24.60;94.60;;;;;;5052358;28;20422;-87
2023/06/26 10:33:26;;;;;;;4.93;1.50;;;24.60;89.60;;;;;;5051760;28;20414;-86
2023/06/26 10:35:52;;;;;;;3.90;1.55;;;24.20;90.90;;;;;;5064724;28;20399;-85
2023/06/26 10:38:18;;;;;;;5.03;1.27;;;24.20;95.10;;;;;;5049200;28;20404;-85
2023/06/26 10:40:48;;;;;;;5.60;1.03;;;24.60;95.50;;;;;;5067630;28;20410;-85
2023/06/26 10:43:15;;;;;;;5.60;1.30;;;25.10;92.40;;;;;;5069563;28;20446;-85
2023/06/26 10:45:54;;;;;;;5.63;0.90;;;25.50;84.20;;;;;;5067649;28;20441;-85
2023/06/26 10:48:21;;;;;;;4.82;0.70;;;25.20;70.50;;;;;;5068546;28;20438;-83
2023/06/26 10:50:50;;;;;;;4.43;0.80;;;25.10;70.70;;;;;;5067747;28;20426;-86
2023/06/26 10:53:20;;;;;;;4.13;0.60;;;25.10;73.80;;;;;;5067667;28;20455;-84
2023/06/26 10:55:56;;;;;;;2.90;0.60;;;25.30;74.50;;;;;;5048704;28;20399;-86
2023/06/26 10:58:39;;;;;;;2.88;0.50;;;24.90;70.70;;;;;;5047126;28;20415;-84
2023/06/26 11:01:11;;;;;;;5.07;0.70;;;24.90;70.90;;;;;;5047824;28;20423;-85
2023/06/26 11:03:38;;;;;;;5.45;0.70;;;25.10;77.00;;;;;;5064708;28;20457;-86
2023/06/26 11:06:13;;;;;;;3.90;0.80;;;25.20;73.20;;;;;;5066984;28;20434;-84
2023/06/26 11:08:46;;;;;;;4.45;0.93;;;25.30;74.30;;;;;;5063047;28;20780;-84
2023/06/26 11:11:12;;;;;;;5.07;0.75;;;25.60;69.80;;;;;;5044591;28;20507;-86
2023/06/26 11:13:39;;;;;;;3.38;0.50;;;25.80;63.40;;;;;;5067953;28;21039;-85
2023/06/26 11:16:07;;;;;;;4.80;0.73;;;26.00;66.00;;;;;;5066251;28;20398;-85
2023/06/26 11:18:33;;;;;;;3.60;0.40;;;26.20;57.80;;;;;;5066465;28;20432;-87
2023/06/26 11:21:09;;;;;;;5.43;0.60;;;26.60;62.40;;;;;;5067473;28;20914;-86
2023/06/26 11:23:36;;;;;;;3.63;0.60;;;26.90;57.00;;;;;;5050557;28;20820;-86
2023/06/26 11:26:18;;;;;;;4.30;0.60;;;27.10;56.50;;;;;;5051963;28;20400;-85
2023/06/26 11:28:52;;;;;;;4.57;0.60;;;27.40;51.90;;;;;;5050299;28;20516;-85
2023/06/26 11:31:29;;;;;;;4.05;0.80;;;27.20;50.80;;;;;;5068213;28;20434;-89
2023/06/26 11:33:56;;;;;;;5.00;0.60;;;26.90;50.10;;;;;;5067682;28;20406;-85
2023/06/26 11:36:26;;;;;;;5.63;0.53;;;26.50;49.60;;;;;;5067355;28;20963;-85
2023/06/26 11:39:00;;;;;;;3.28;0.50;;;26.10;52.30;;;;;;5051393;28;20478;-86
2023/06/26 11:41:30;;;;;;;5.28;0.60;;;26.20;56.00;;;;;;5066606;28;20418;-85
2023/06/26 11:44:02;;;;;;;4.60;0.73;;;26.30;53.70;;;;;;5068696;28;20951;-83
2023/06/26 11:46:28;;;;;;;4.43;0.52;;;26.10;55.20;;;;;;5067549;28;20955;-84
2023/06/26 11:48:54;;;;;;;5.95;0.70;;;26.10;51.60;;;;;;5067690;28;20440;-86
2023/06/26 11:51:20;;;;;;;3.23;0.60;;;25.90;55.30;;;;;;5067436;28;20563;-82
2023/06/26 11:53:47;;;;;;;6.32;0.85;;;25.90;56.00;;;;;;5067164;28;20513;-86
2023/06/26 11:56:17;;;;;;;5.43;0.85;;;26.20;57.20;;;;;;5068275;28;20898;-85
2023/06/26 11:59:03;;;;;;;5.80;0.80;;;26.10;53.50;;;;;;5066721;28;20894;-85
2023/06/26 12:01:44;;;;;;;4.75;0.70;;;25.70;53.40;;;;;;5068271;28;20766;-84
2023/06/26 12:04:14;;;;;;;5.75;0.75;;;25.10;58.30;;;;;;5067565;28;20402;-84
2023/06/26 12:06:46;;;;;;;4.82;0.80;;;24.80;57.90;;;;;;5066800;28;20405;-83
2023/06/26 12:09:13;;;;;;;5.25;0.85;;;24.90;65.40;;;;;;5051778;28;20559;-85
2023/06/26 12:11:42;;;;;;;6.23;0.90;;;25.00;59.50;;;;;;5066308;28;20782;-85
2023/06/26 12:14:08;;;;;;;4.38;0.85;;;25.00;63.70;;;;;;5051281;28;20470;-85
2023/06/26 12:16:35;;;;;;;4.07;0.70;;;25.10;63.20;;;;;;5066894;28;20806;-83
2023/06/26 12:19:02;;;;;;;5.63;1.00;;;25.20;61.30;;;;;;5067674;28;20762;-84
2023/06/26 12:21:37;;;;;;;5.82;0.80;;;24.90;59.40;;;;;;5067744;28;20857;-85
2023/06/26 12:24:04;;;;;;;5.85;0.90;;;24.80;64.60;;;;;;5066649;28;20415;-85
2023/06/26 12:26:29;;;;;;;7.75;0.98;;;24.70;64.60;;;;;;5067749;28;20452;-87
2023/06/26 12:29:03;;;;;;;6.43;0.77;;;25.00;64.60;;;;;;5066453;28;20531;-85
2023/06/26 12:31:29;;;;;;;4.03;0.60;;;25.00;61.00;;;;;;5067128;28;20424;-86
2023/06/26 12:33:55;;;;;;;4.25;0.70;;;25.10;60.20;;;;;;5049793;28;20444;-86
2023/06/26 12:36:20;;;;;;;5.60;0.90;;;25.10;57.20;;;;;;5067277;28;20771;-87
2023/06/26 12:38:48;;;;;;;6.37;0.97;;;25.50;59.30;;;;;;5050157;28;20439;-84
2023/06/26 12:41:17;;;;;;;5.68;0.80;;;25.80;60.00;;;;;;5066072;28;20448;-86